sensor_id;sensor_type;location;lat;lon;timestamp;pressure;altitude;pressure_sealevel;temperature;humidity
61037;BME280;72210;47.076;15.430;2023-11-19T00:01:53;97710.69;;;3.85;100.00
61037;BME280;72210;47.076;15.430;2023-11-19T00:04:20;97700.44;;;3.83;100.00
61037;BME280;72210;47.076;15.430;2023-11-19T00:06:47;97690.88;;;3.87;100.00
61037;BME280;72210;47.076;15.430;2023-11-19T00:09:14;97687.50;;;3.85;100.00
61037;BME280;72210;47.076;15.430;2023-11-19T00:11:41;97685.13;;;3.77;100.00
61037;BME280;72210;47.076;15.430;2023-11-19T00:14:09;97691.25;;;3.74;100.00
61037;BME280;72210;47.076;15.430;2023-11-19T00:16:36;97681.00;;;3.71;100.00
61037;BME280;72210;47.076;15.430;2023-11-19T00:19:03;97695.66;;;3.69;100.00
61037;BME280;72210;47.076;15.430;2023-11-19T00:21:30;97680.16;;;3.71;100.00
61037;BME280;72210;47.076;15.430;2023-11-19T00:23:57;97677.56;;;3.71;100.00
61037;BME280;72210;47.076;15.430;2023-11-19T00:26:25;97679.22;;;3.73;100.00
61037;BME280;72210;47.076;15.430;2023-11-19T00:28:51;97681.69;;;3.78;100.00
61037;BME280;72210;47.076;15.430;2023-11-19T00:31:20;97678.16;;;3.81;100.00
61037;BME280;72210;47.076;15.430;2023-11-19T00:33:47;97661.75;;;3.85;100.00
61037;BME280;72210;47.076;15.430;2023-11-19T00:36:16;97664.22;;;3.88;100.00
61037;BME280;72210;47.076;15.430;2023-11-19T00:38:43;97658.19;;;3.89;100.00
61037;BME280;72210;47.076;15.430;2023-11-19T00:41:10;97652.91;;;3.93;100.00
61037;BME280;72210;47.076;15.430;2023-11-19T00:43:37;97654.59;;;3.94;100.00
61037;BME280;72210;47.076;15.430;2023-11-19T00:46:07;97671.97;;;3.88;100.00
61037;BME280;72210;47.076;15.430;2023-11-19T00:48:35;97658.50;;;3.78;100.00
61037;BME280;72210;47.076;15.430;2023-11-19T00:51:03;97650.09;;;3.71;100.00
61037;BME280;72210;47.076;15.430;2023-11-19T00:53:30;97639.75;;;3.73;100.00
61037;BME280;72210;47.076;15.430;2023-11-19T00:55:57;97644.28;;;3.63;100.00
61037;BME280;72210;47.076;15.430;2023-11-19T00:58:25;97638.22;;;3.66;100.00
61037;BME280;72210;47.076;15.430;2023-11-19T01:00:52;97636.22;;;3.75;100.00
61037;BME280;72210;47.076;15.430;2023-11-19T01:03:19;97635.22;;;3.81;100.00
61037;BME280;72210;47.076;15.430;2023-11-19T01:05:48;97631.63;;;3.87;100.00
61037;BME280;72210;47.076;15.430;2023-11-19T01:08:14;97639.16;;;3.93;100.00
61037;BME280;72210;47.076;15.430;2023-11-19T01:10:41;97649.31;;;3.99;100.00
61037;BME280;72210;47.076;15.430;2023-11-19T01:13:08;97653.53;;;4.02;100.00
61037;BME280;72210;47.076;15.430;2023-11-19T01:15:35;97653.44;;;4.05;100.00
61037;BME280;72210;47.076;15.430;2023-11-19T01:18:02;97655.06;;;4.09;100.00
61037;BME280;72210;47.076;15.430;2023-11-19T01:20:29;97641.34;;;4.07;100.00
61037;BME280;72210;47.076;15.430;2023-11-19T01:22:57;97635.22;;;4.11;100.00
61037;BME280;72210;47.076;15.430;2023-11-19T01:25:24;97618.88;;;4.12;100.00
61037;BME280;72210;47.076;15.430;2023-11-19T01:27:51;97612.03;;;4.11;100.00
61037;BME280;72210;47.076;15.430;2023-11-19T01:30:18;97616.34;;;4.10;100.00
61037;BME280;72210;47.076;15.430;2023-11-19T01:32:45;97613.91;;;4.06;100.00
61037;BME280;72210;47.076;15.430;2023-11-19T01:35:12;97613.19;;;4.01;100.00
61037;BME280;72210;47.076;15.430;2023-11-19T01:37:39;97603.88;;;3.97;100.00
61037;BME280;72210;47.076;15.430;2023-11-19T01:40:08;97602.13;;;3.97;100.00
61037;BME280;72210;47.076;15.430;2023-11-19T01:42:36;97595.09;;;4.02;100.00
61037;BME280;72210;47.076;15.430;2023-11-19T01:45:04;97587.19;;;4.08;100.00
61037;BME280;72210;47.076;15.430;2023-11-19T01:47:31;97584.56;;;4.10;100.00
61037;BME280;72210;47.076;15.430;2023-11-19T01:49:58;97578.69;;;4.05;100.00
61037;BME280;72210;47.076;15.430;2023-11-19T01:52:26;97571.91;;;4.02;100.00
61037;BME280;72210;47.076;15.430;2023-11-19T01:54:54;97569.50;;;3.96;100.00
61037;BME280;72210;47.076;15.430;2023-11-19T01:57:24;97578.00;;;4.00;100.00
61037;BME280;72210;47.076;15.430;2023-11-19T01:59:52;97575.44;;;4.00;100.00
61037;BME280;72210;47.076;15.430;2023-11-19T02:02:19;97571.44;;;3.89;100.00
61037;BME280;72210;47.076;15.430;2023-11-19T02:04:47;97552.69;;;3.84;100.00
61037;BME280;72210;47.076;15.430;2023-11-19T02:07:14;97560.56;;;3.80;100.00
61037;BME280;72210;47.076;15.430;2023-11-19T02:09:42;97550.34;;;3.76;100.00
61037;BME280;72210;47.076;15.430;2023-11-19T02:12:09;97550.38;;;3.75;100.00
61037;BME280;72210;47.076;15.430;2023-11-19T02:14:38;97542.69;;;3.73;100.00
61037;BME280;72210;47.076;15.430;2023-11-19T02:17:05;97531.69;;;3.68;100.00
61037;BME280;72210;47.076;15.430;2023-11-19T02:19:32;97531.94;;;3.61;100.00
61037;BME280;72210;47.076;15.430;2023-11-19T02:21:59;97533.63;;;3.60;100.00
61037;BME280;72210;47.076;15.430;2023-11-19T02:24:29;97524.56;;;3.48;100.00
61037;BME280;72210;47.076;15.430;2023-11-19T02:27:02;97524.72;;;3.42;100.00
61037;BME280;72210;47.076;15.430;2023-11-19T02:29:31;97520.38;;;3.44;100.00
61037;BME280;72210;47.076;15.430;2023-11-19T02:31:58;97517.09;;;3.39;100.00
61037;BME280;72210;47.076;15.430;2023-11-19T02:34:25;97512.81;;;3.38;100.00
61037;BME280;72210;47.076;15.430;2023-11-19T02:36:52;97517.09;;;3.39;100.00
61037;BME280;72210;47.076;15.430;2023-11-19T02:39:19;97524.91;;;3.36;100.00
61037;BME280;72210;47.076;15.430;2023-11-19T02:41:46;97529.22;;;3.34;100.00
61037;BME280;72210;47.076;15.430;2023-11-19T02:44:13;97517.38;;;3.28;100.00
61037;BME280;72210;47.076;15.430;2023-11-19T02:46:41;97519.22;;;3.23;100.00
61037;BME280;72210;47.076;15.430;2023-11-19T02:49:08;97508.09;;;3.22;100.00
61037;BME280;72210;47.076;15.430;2023-11-19T02:51:35;97503.78;;;3.23;100.00
61037;BME280;72210;47.076;15.430;2023-11-19T02:54:02;97501.00;;;3.31;100.00
61037;BME280;72210;47.076;15.430;2023-11-19T02:56:29;97499.16;;;3.36;100.00
61037;BME280;72210;47.076;15.430;2023-11-19T02:58:56;97493.97;;;3.37;100.00
61037;BME280;72210;47.076;15.430;2023-11-19T03:01:23;97487.06;;;3.38;100.00
61037;BME280;72210;47.076;15.430;2023-11-19T03:03:52;97481.09;;;3.37;100.00
61037;BME280;72210;47.076;15.430;2023-11-19T03:06:19;97481.03;;;3.39;100.00
61037;BME280;72210;47.076;15.430;2023-11-19T03:08:46;97477.75;;;3.34;100.00
61037;BME280;72210;47.076;15.430;2023-11-19T03:11:13;97479.63;;;3.29;100.00
61037;BME280;72210;47.076;15.430;2023-11-19T03:13:40;97465.94;;;3.27;100.00
61037;BME280;72210;47.076;15.430;2023-11-19T03:16:07;97472.84;;;3.24;100.00
61037;BME280;72210;47.076;15.430;2023-11-19T03:18:34;97467.84;;;3.20;100.00
61037;BME280;72210;47.076;15.430;2023-11-19T03:21:03;97480.72;;;3.20;100.00
61037;BME280;72210;47.076;15.430;2023-11-19T03:23:30;97467.78;;;3.21;100.00
61037;BME280;72210;47.076;15.430;2023-11-19T03:25:57;97456.72;;;3.19;100.00
61037;BME280;72210;47.076;15.430;2023-11-19T03:28:24;97456.63;;;3.22;100.00
61037;BME280;72210;47.076;15.430;2023-11-19T03:30:51;97443.97;;;3.15;100.00
61037;BME280;72210;47.076;15.430;2023-11-19T03:33:17;97439.78;;;3.11;100.00
61037;BME280;72210;47.076;15.430;2023-11-19T03:35:45;97445.88;;;3.08;100.00
61037;BME280;72210;47.076;15.430;2023-11-19T03:38:13;97431.28;;;3.09;100.00
61037;BME280;72210;47.076;15.430;2023-11-19T03:40:40;97429.50;;;3.11;100.00
61037;BME280;72210;47.076;15.430;2023-11-19T03:43:06;97412.06;;;3.20;100.00
61037;BME280;72210;47.076;15.430;2023-11-19T03:45:33;97409.50;;;3.20;100.00
61037;BME280;72210;47.076;15.430;2023-11-19T03:48:00;97402.84;;;3.13;100.00
61037;BME280;72210;47.076;15.430;2023-11-19T03:50:27;97409.00;;;3.08;100.00
61037;BME280;72210;47.076;15.430;2023-11-19T03:52:54;97414.09;;;3.09;100.00
61037;BME280;72210;47.076;15.430;2023-11-19T03:55:22;97406.34;;;3.11;100.00
61037;BME280;72210;47.076;15.430;2023-11-19T03:57:49;97406.28;;;3.12;100.00
61037;BME280;72210;47.076;15.430;2023-11-19T04:00:17;97410.56;;;3.13;100.00
61037;BME280;72210;47.076;15.430;2023-11-19T04:02:44;97398.34;;;3.20;100.00
61037;BME280;72210;47.076;15.430;2023-11-19T04:05:11;97400.00;;;3.22;100.00
61037;BME280;72210;47.076;15.430;2023-11-19T04:07:38;97392.97;;;3.28;100.00
61037;BME280;72210;47.076;15.430;2023-11-19T04:10:05;97384.22;;;3.33;100.00
61037;BME280;72210;47.076;15.430;2023-11-19T04:12:35;97382.53;;;3.32;100.00
61037;BME280;72210;47.076;15.430;2023-11-19T04:15:02;97373.09;;;3.33;100.00
61037;BME280;72210;47.076;15.430;2023-11-19T04:17:29;97370.34;;;3.39;100.00
61037;BME280;72210;47.076;15.430;2023-11-19T04:19:56;97372.78;;;3.44;100.00
61037;BME280;72210;47.076;15.430;2023-11-19T04:22:23;97375.31;;;3.45;100.00
61037;BME280;72210;47.076;15.430;2023-11-19T04:24:50;97369.47;;;3.38;100.00
61037;BME280;72210;47.076;15.430;2023-11-19T04:27:17;97370.38;;;3.37;100.00
61037;BME280;72210;47.076;15.430;2023-11-19T04:29:45;97371.22;;;3.38;100.00
61037;BME280;72210;47.076;15.430;2023-11-19T04:32:12;97360.22;;;3.33;100.00
61037;BME280;72210;47.076;15.430;2023-11-19T04:34:39;97346.63;;;3.28;100.00
61037;BME280;72210;47.076;15.430;2023-11-19T04:37:07;97359.50;;;3.28;100.00
61037;BME280;72210;47.076;15.430;2023-11-19T04:39:37;97370.00;;;3.21;100.00
61037;BME280;72210;47.076;15.430;2023-11-19T04:42:04;97363.28;;;3.17;100.00
61037;BME280;72210;47.076;15.430;2023-11-19T04:44:31;97368.66;;;3.10;100.00
61037;BME280;72210;47.076;15.430;2023-11-19T04:46:59;97362.84;;;3.01;100.00
61037;BME280;72210;47.076;15.430;2023-11-19T04:49:26;97357.97;;;2.94;100.00
61037;BME280;72210;47.076;15.430;2023-11-19T04:51:54;97362.47;;;2.85;100.00
61037;BME280;72210;47.076;15.430;2023-11-19T04:54:21;97358.44;;;2.77;100.00
61037;BME280;72210;47.076;15.430;2023-11-19T04:56:48;97360.25;;;2.73;100.00
61037;BME280;72210;47.076;15.430;2023-11-19T04:59:15;97362.13;;;2.68;100.00
61037;BME280;72210;47.076;15.430;2023-11-19T05:01:46;97355.38;;;2.64;100.00
61037;BME280;72210;47.076;15.430;2023-11-19T05:04:15;97351.13;;;2.63;100.00
61037;BME280;72210;47.076;15.430;2023-11-19T05:06:42;97342.59;;;2.61;100.00
61037;BME280;72210;47.076;15.430;2023-11-19T05:09:09;97346.84;;;2.62;100.00
61037;BME280;72210;47.076;15.430;2023-11-19T05:11:36;97344.28;;;2.62;100.00
61037;BME280;72210;47.076;15.430;2023-11-19T05:14:16;97335.75;;;2.61;100.00
61037;BME280;72210;47.076;15.430;2023-11-19T05:16:43;97337.44;;;2.61;100.00
61037;BME280;72210;47.076;15.430;2023-11-19T05:19:10;97325.41;;;2.63;100.00
61037;BME280;72210;47.076;15.430;2023-11-19T05:21:41;97331.34;;;2.65;100.00
61037;BME280;72210;47.076;15.430;2023-11-19T05:24:08;97316.88;;;2.61;100.00
61037;BME280;72210;47.076;15.430;2023-11-19T05:26:35;97302.28;;;2.63;100.00
61037;BME280;72210;47.076;15.430;2023-11-19T05:29:02;97313.31;;;2.66;100.00
61037;BME280;72210;47.076;15.430;2023-11-19T05:31:28;97308.03;;;2.71;100.00
61037;BME280;72210;47.076;15.430;2023-11-19T05:33:58;97303.66;;;2.73;100.00
61037;BME280;72210;47.076;15.430;2023-11-19T05:36:25;97301.00;;;2.76;100.00
61037;BME280;72210;47.076;15.430;2023-11-19T05:38:53;97308.69;;;2.78;100.00
61037;BME280;72210;47.076;15.430;2023-11-19T05:41:20;97310.38;;;2.79;100.00
61037;BME280;72210;47.076;15.430;2023-11-19T05:43:47;97324.72;;;2.87;100.00
61037;BME280;72210;47.076;15.430;2023-11-19T05:46:14;97317.56;;;2.97;100.00
61037;BME280;72210;47.076;15.430;2023-11-19T05:48:45;97325.81;;;3.07;100.00
61037;BME280;72210;47.076;15.430;2023-11-19T05:51:12;97317.13;;;3.11;100.00
61037;BME280;72210;47.076;15.430;2023-11-19T05:53:39;97295.69;;;3.11;100.00
61037;BME280;72210;47.076;15.430;2023-11-19T05:56:08;97288.69;;;3.16;100.00
61037;BME280;72210;47.076;15.430;2023-11-19T05:58:36;97291.00;;;3.23;100.00
61037;BME280;72210;47.076;15.430;2023-11-19T06:01:03;97293.50;;;3.27;100.00
61037;BME280;72210;47.076;15.430;2023-11-19T06:03:31;97289.13;;;3.29;100.00
61037;BME280;72210;47.076;15.430;2023-11-19T06:05:58;97289.03;;;3.32;100.00
61037;BME280;72210;47.076;15.430;2023-11-19T06:08:25;97281.31;;;3.32;100.00
61037;BME280;72210;47.076;15.430;2023-11-19T06:10:52;97281.41;;;3.29;100.00
61037;BME280;72210;47.076;15.430;2023-11-19T06:13:21;97272.72;;;3.33;100.00
61037;BME280;72210;47.076;15.430;2023-11-19T06:15:51;97257.06;;;3.39;100.00
61037;BME280;72210;47.076;15.430;2023-11-19T06:18:18;97253.63;;;3.38;100.00
61037;BME280;72210;47.076;15.430;2023-11-19T06:20:45;97270.91;;;3.35;100.00
61037;BME280;72210;47.076;15.430;2023-11-19T06:23:12;97281.25;;;3.33;100.00
61037;BME280;72210;47.076;15.430;2023-11-19T06:25:39;97276.94;;;3.34;100.00
61037;BME280;72210;47.076;15.430;2023-11-19T06:28:05;97284.56;;;3.37;100.00
61037;BME280;72210;47.076;15.430;2023-11-19T06:30:34;97275.88;;;3.41;100.00
61037;BME280;72210;47.076;15.430;2023-11-19T06:33:01;97274.88;;;3.45;100.00
61037;BME280;72210;47.076;15.430;2023-11-19T06:35:28;97274.03;;;3.45;100.00
61037;BME280;72210;47.076;15.430;2023-11-19T06:37:55;97266.06;;;3.52;100.00
61037;BME280;72210;47.076;15.430;2023-11-19T06:40:21;97256.56;;;3.54;100.00
61037;BME280;72210;47.076;15.430;2023-11-19T06:42:48;97277.00;;;3.59;100.00
61037;BME280;72210;47.076;15.430;2023-11-19T06:45:15;97266.50;;;3.65;100.00
61037;BME280;72210;47.076;15.430;2023-11-19T06:47:44;97267.97;;;3.72;100.00
61037;BME280;72210;47.076;15.430;2023-11-19T06:50:11;97263.56;;;3.76;100.00
61037;BME280;72210;47.076;15.430;2023-11-19T06:52:37;97250.41;;;3.84;100.00
61037;BME280;72210;47.076;15.430;2023-11-19T06:55:05;97238.44;;;3.83;100.00
61037;BME280;72210;47.076;15.430;2023-11-19T06:57:34;97252.19;;;3.82;100.00
61037;BME280;72210;47.076;15.430;2023-11-19T07:00:02;97257.91;;;3.90;100.00
61037;BME280;72210;47.076;15.430;2023-11-19T07:02:29;97266.41;;;3.93;100.00
61037;BME280;72210;47.076;15.430;2023-11-19T07:04:57;97267.03;;;4.00;100.00
61037;BME280;72210;47.076;15.430;2023-11-19T07:07:24;97258.19;;;4.07;100.00
61037;BME280;72210;47.076;15.430;2023-11-19T07:09:51;97263.84;;;4.17;100.00
61037;BME280;72210;47.076;15.430;2023-11-19T07:12:18;97267.97;;;4.23;100.00
61037;BME280;72210;47.076;15.430;2023-11-19T07:14:44;97259.31;;;4.24;100.00
61037;BME280;72210;47.076;15.430;2023-11-19T07:17:11;97263.00;;;4.17;100.00
61037;BME280;72210;47.076;15.430;2023-11-19T07:19:38;97270.16;;;4.08;100.00
61037;BME280;72210;47.076;15.430;2023-11-19T07:22:07;97272.00;;;4.05;100.00
61037;BME280;72210;47.076;15.430;2023-11-19T07:24:34;97260.72;;;4.09;100.00
61037;BME280;72210;47.076;15.430;2023-11-19T07:27:00;97272.34;;;4.19;100.00
61037;BME280;72210;47.076;15.430;2023-11-19T07:29:27;97256.66;;;4.25;100.00
61037;BME280;72210;47.076;15.430;2023-11-19T07:31:56;97242.00;;;4.27;100.00
61037;BME280;72210;47.076;15.430;2023-11-19T07:34:24;97232.47;;;4.29;100.00
61037;BME280;72210;47.076;15.430;2023-11-19T07:36:50;97211.78;;;4.31;100.00
61037;BME280;72210;47.076;15.430;2023-11-19T07:39:19;97184.38;;;4.28;100.00
61037;BME280;72210;47.076;15.430;2023-11-19T07:41:46;97161.91;;;4.08;100.00
61037;BME280;72210;47.076;15.430;2023-11-19T07:44:13;97194.88;;;4.00;100.00
61037;BME280;72210;47.076;15.430;2023-11-19T07:46:40;97222.50;;;3.97;100.00
61037;BME280;72210;47.076;15.430;2023-11-19T07:49:07;97220.41;;;3.83;100.00
61037;BME280;72210;47.076;15.430;2023-11-19T07:51:34;97222.34;;;3.76;100.00
61037;BME280;72210;47.076;15.430;2023-11-19T07:54:00;97247.88;;;3.82;100.00
61037;BME280;72210;47.076;15.430;2023-11-19T07:56:29;97239.59;;;3.98;100.00
61037;BME280;72210;47.076;15.430;2023-11-19T07:58:56;97205.34;;;4.19;100.00
61037;BME280;72210;47.076;15.430;2023-11-19T08:01:23;97217.00;;;4.06;100.00
61037;BME280;72210;47.076;15.430;2023-11-19T08:03:50;97234.63;;;3.93;100.00
61037;BME280;72210;47.076;15.430;2023-11-19T08:06:20;97240.84;;;3.87;100.00
61037;BME280;72210;47.076;15.430;2023-11-19T08:08:47;97247.56;;;3.91;100.00
61037;BME280;72210;47.076;15.430;2023-11-19T08:11:14;97249.28;;;4.16;100.00
61037;BME280;72210;47.076;15.430;2023-11-19T08:13:42;97252.84;;;4.59;100.00
61037;BME280;72210;47.076;15.430;2023-11-19T08:16:09;97242.53;;;5.05;100.00
61037;BME280;72210;47.076;15.430;2023-11-19T08:18:37;97232.53;;;5.18;100.00
61037;BME280;72210;47.076;15.430;2023-11-19T08:21:04;97244.53;;;5.62;100.00
61037;BME280;72210;47.076;15.430;2023-11-19T08:23:31;97242.84;;;6.22;100.00
61037;BME280;72210;47.076;15.430;2023-11-19T08:25:58;97227.97;;;7.91;100.00
61037;BME280;72210;47.076;15.430;2023-11-19T08:28:25;97217.44;;;9.23;92.95
61037;BME280;72210;47.076;15.430;2023-11-19T08:30:54;97212.00;;;10.73;79.59
61037;BME280;72210;47.076;15.430;2023-11-19T08:33:21;97194.50;;;12.47;61.79
61037;BME280;72210;47.076;15.430;2023-11-19T08:35:48;97194.19;;;13.84;53.43
61037;BME280;72210;47.076;15.430;2023-11-19T08:38:15;97192.53;;;14.96;47.00
61037;BME280;72210;47.076;15.430;2023-11-19T08:40:57;97184.97;;;16.41;42.90
61037;BME280;72210;47.076;15.430;2023-11-19T08:43:24;97182.41;;;17.50;39.05
61037;BME280;72210;47.076;15.430;2023-11-19T08:45:51;97184.91;;;18.83;36.70
61037;BME280;72210;47.076;15.430;2023-11-19T08:48:20;97174.91;;;19.59;33.76
61037;BME280;72210;47.076;15.430;2023-11-19T08:50:47;97177.69;;;20.20;31.87
61037;BME280;72210;47.076;15.430;2023-11-19T08:53:14;97167.41;;;20.86;31.31
61037;BME280;72210;47.076;15.430;2023-11-19T08:55:40;97177.63;;;21.64;30.54
61037;BME280;72210;47.076;15.430;2023-11-19T08:58:07;97176.91;;;22.12;28.38
61037;BME280;72210;47.076;15.430;2023-11-19T09:00:34;97162.50;;;21.98;28.68
61037;BME280;72210;47.076;15.430;2023-11-19T09:03:02;97148.38;;;22.14;28.38
61037;BME280;72210;47.076;15.430;2023-11-19T09:05:31;97153.16;;;22.35;27.75
61037;BME280;72210;47.076;15.430;2023-11-19T09:07:58;97159.34;;;21.04;29.00
61037;BME280;72210;47.076;15.430;2023-11-19T09:10:24;97158.75;;;21.51;28.70
61037;BME280;72210;47.076;15.430;2023-11-19T09:12:52;97167.75;;;23.10;27.25
61037;BME280;72210;47.076;15.430;2023-11-19T09:15:21;97162.72;;;21.55;27.86
61037;BME280;72210;47.076;15.430;2023-11-19T09:17:48;97164.47;;;18.68;31.29
61037;BME280;72210;47.076;15.430;2023-11-19T09:20:15;97166.06;;;16.66;34.91
61037;BME280;72210;47.076;15.430;2023-11-19T09:22:44;97162.25;;;14.92;38.10
61037;BME280;72210;47.076;15.430;2023-11-19T09:25:11;97143.06;;;14.14;41.01
61037;BME280;72210;47.076;15.430;2023-11-19T09:27:38;97145.16;;;14.43;41.18
61037;BME280;72210;47.076;15.430;2023-11-19T09:30:06;97134.56;;;13.65;42.86
61037;BME280;72210;47.076;15.430;2023-11-19T09:32:33;97136.81;;;12.99;44.42
61037;BME280;72210;47.076;15.430;2023-11-19T09:35:00;97144.56;;;13.71;44.27
61037;BME280;72210;47.076;15.430;2023-11-19T09:37:27;97137.31;;;16.24;39.27
61037;BME280;72210;47.076;15.430;2023-11-19T09:39:56;97133.28;;;17.78;36.06
61037;BME280;72210;47.076;15.430;2023-11-19T09:42:23;97129.78;;;19.08;33.49
61037;BME280;72210;47.076;15.430;2023-11-19T09:44:51;97121.41;;;19.57;31.66
61037;BME280;72210;47.076;15.430;2023-11-19T09:47:19;97125.16;;;19.90;31.20
61037;BME280;72210;47.076;15.430;2023-11-19T09:49:46;97099.94;;;20.39;30.95
61037;BME280;72210;47.076;15.430;2023-11-19T09:52:14;97084.84;;;20.98;30.07
61037;BME280;72210;47.076;15.430;2023-11-19T09:54:41;97091.13;;;22.28;28.58
61037;BME280;72210;47.076;15.430;2023-11-19T09:57:10;97089.59;;;22.02;28.42
61037;BME280;72210;47.076;15.430;2023-11-19T09:59:38;97097.84;;;22.55;27.41
61037;BME280;72210;47.076;15.430;2023-11-19T10:02:07;97107.81;;;24.07;26.10
61037;BME280;72210;47.076;15.430;2023-11-19T10:04:35;97114.66;;;24.97;24.52
61037;BME280;72210;47.076;15.430;2023-11-19T10:07:03;97105.88;;;21.82;27.42
61037;BME280;72210;47.076;15.430;2023-11-19T10:09:30;97089.69;;;19.31;30.71
61037;BME280;72210;47.076;15.430;2023-11-19T10:11:57;97078.88;;;17.59;33.28
61037;BME280;72210;47.076;15.430;2023-11-19T10:14:27;97071.00;;;16.51;35.33
61037;BME280;72210;47.076;15.430;2023-11-19T10:16:55;97059.94;;;17.36;35.01
61037;BME280;72210;47.076;15.430;2023-11-19T10:19:22;97060.41;;;16.92;35.65
61037;BME280;72210;47.076;15.430;2023-11-19T10:21:49;97053.44;;;18.15;34.00
61037;BME280;72210;47.076;15.430;2023-11-19T10:24:15;97038.75;;;19.65;31.97
61037;BME280;72210;47.076;15.430;2023-11-19T10:26:45;97051.53;;;20.04;31.42
61037;BME280;72210;47.076;15.430;2023-11-19T10:29:13;97036.31;;;19.71;31.68
61037;BME280;72210;47.076;15.430;2023-11-19T10:31:43;97036.38;;;20.65;30.35
61037;BME280;72210;47.076;15.430;2023-11-19T10:34:25;97025.56;;;21.65;28.71
61037;BME280;72210;47.076;15.430;2023-11-19T10:36:53;97025.97;;;22.88;27.16
61037;BME280;72210;47.076;15.430;2023-11-19T10:39:20;97024.19;;;24.46;25.99
61037;BME280;72210;47.076;15.430;2023-11-19T10:41:47;97010.03;;;25.95;23.95
61037;BME280;72210;47.076;15.430;2023-11-19T10:44:31;97005.63;;;27.04;22.40
61037;BME280;72210;47.076;15.430;2023-11-19T10:46:59;97006.53;;;26.43;23.02
61037;BME280;72210;47.076;15.430;2023-11-19T10:49:26;97002.34;;;26.89;22.48
61037;BME280;72210;47.076;15.430;2023-11-19T10:51:53;96998.53;;;28.03;21.62
61037;BME280;72210;47.076;15.430;2023-11-19T10:54:22;96999.00;;;27.80;20.83
61037;BME280;72210;47.076;15.430;2023-11-19T10:56:55;96992.47;;;27.36;21.46
61037;BME280;72210;47.076;15.430;2023-11-19T10:59:28;96999.88;;;27.27;21.41
61037;BME280;72210;47.076;15.430;2023-11-19T11:02:03;96995.56;;;27.46;21.13
61037;BME280;72210;47.076;15.430;2023-11-19T11:04:39;96990.72;;;27.88;21.13
61037;BME280;72210;47.076;15.430;2023-11-19T11:07:07;96989.91;;;28.40;20.70
61037;BME280;72210;47.076;15.430;2023-11-19T11:09:35;96989.13;;;29.28;20.10
61037;BME280;72210;47.076;15.430;2023-11-19T11:12:04;96986.63;;;29.70;19.41
61037;BME280;72210;47.076;15.430;2023-11-19T11:14:34;96988.50;;;29.51;19.61
61037;BME280;72210;47.076;15.430;2023-11-19T11:17:05;96988.00;;;29.80;19.57
61037;BME280;72210;47.076;15.430;2023-11-19T11:19:35;96999.88;;;29.90;18.81
61037;BME280;72210;47.076;15.430;2023-11-19T11:22:03;96998.59;;;30.12;18.67
61037;BME280;72210;47.076;15.430;2023-11-19T11:27:49;96975.94;;;30.38;18.34
61037;BME280;72210;47.076;15.430;2023-11-19T11:30:20;96981.63;;;30.30;18.67
61037;BME280;72210;47.076;15.430;2023-11-19T11:33:04;96973.06;;;30.82;18.34
61037;BME280;72210;47.076;15.430;2023-11-19T11:35:40;96967.75;;;31.05;17.93
61037;BME280;72210;47.076;15.430;2023-11-19T11:38:14;96956.66;;;31.61;17.77
61037;BME280;72210;47.076;15.430;2023-11-19T11:40:41;96952.28;;;32.53;17.14
61037;BME280;72210;47.076;15.430;2023-11-19T11:46:08;96932.97;;;32.73;16.62
61037;BME280;72210;47.076;15.430;2023-11-19T11:48:44;96942.78;;;32.79;16.66
61037;BME280;72210;47.076;15.430;2023-11-19T11:51:14;96922.50;;;32.93;16.54
61037;BME280;72210;47.076;15.430;2023-11-19T11:53:41;96940.47;;;33.39;16.86
61037;BME280;72210;47.076;15.430;2023-11-19T11:56:09;96927.50;;;33.19;16.47
61037;BME280;72210;47.076;15.430;2023-11-19T11:58:36;96917.56;;;29.84;18.50
61037;BME280;72210;47.076;15.430;2023-11-19T12:01:04;96917.59;;;26.36;21.38
61037;BME280;72210;47.076;15.430;2023-11-19T12:03:32;96906.00;;;23.22;24.11
61037;BME280;72210;47.076;15.430;2023-11-19T12:06:00;96913.00;;;20.89;27.48
61037;BME280;72210;47.076;15.430;2023-11-19T12:08:29;96910.91;;;19.49;29.09
61037;BME280;72210;47.076;15.430;2023-11-19T12:10:57;96909.09;;;18.27;31.09
61037;BME280;72210;47.076;15.430;2023-11-19T12:13:44;96909.41;;;17.22;33.35
61037;BME280;72210;47.076;15.430;2023-11-19T12:16:13;96901.66;;;16.44;35.11
61037;BME280;72210;47.076;15.430;2023-11-19T12:18:40;96891.94;;;15.76;36.57
61037;BME280;72210;47.076;15.430;2023-11-19T12:21:08;96898.41;;;15.22;38.40
61037;BME280;72210;47.076;15.430;2023-11-19T12:23:44;96892.03;;;14.63;40.25
61037;BME280;72210;47.076;15.430;2023-11-19T12:26:21;96893.19;;;14.16;42.35
61037;BME280;72210;47.076;15.430;2023-11-19T12:28:58;96895.22;;;13.80;43.12
61037;BME280;72210;47.076;15.430;2023-11-19T12:31:25;96889.94;;;13.48;45.07
61037;BME280;72210;47.076;15.430;2023-11-19T12:33:53;96894.69;;;13.20;46.69
61037;BME280;72210;47.076;15.430;2023-11-19T12:36:22;96887.31;;;12.91;48.34
61037;BME280;72210;47.076;15.430;2023-11-19T12:38:49;96894.41;;;12.55;50.87
61037;BME280;72210;47.076;15.430;2023-11-19T12:41:16;96886.38;;;12.34;53.69
61037;BME280;72210;47.076;15.430;2023-11-19T12:43:43;96893.56;;;12.19;54.97
61037;BME280;72210;47.076;15.430;2023-11-19T12:46:23;96888.28;;;11.97;56.92
61037;BME280;72210;47.076;15.430;2023-11-19T12:48:51;96892.28;;;11.77;58.47
61037;BME280;72210;47.076;15.430;2023-11-19T12:51:19;96903.72;;;11.63;61.28
61037;BME280;72210;47.076;15.430;2023-11-19T12:53:51;96873.19;;;11.52;63.29
61037;BME280;72210;47.076;15.430;2023-11-19T12:56:18;96888.22;;;11.48;63.49
61037;BME280;72210;47.076;15.430;2023-11-19T12:58:45;96880.84;;;11.42;64.97
61037;BME280;72210;47.076;15.430;2023-11-19T13:01:16;96896.16;;;11.34;66.15